Time;durP1;ratioP1;P1;durP2;ratioP2;P2;SDS_P1;SDS_P2;PMS_P1;PMS_P2;Temp;Humidity;BMP_temperature;BMP_pressure;BME280_temperature;BME280_humidity;BME280_pressure;Samples;Min_cycle;Max_cycle;Signal;HPM_P1;HPM_P2
2021/12/27 00:00:19;;;;;;;13.55;11.13;;;;;;;7.68;70.66;97689.34;5098387;28;20020;-51
2021/12/27 00:02:48;;;;;;;12.10;9.57;;;;;;;7.57;70.76;97694.19;5098493;28;20024;-51
2021/12/27 00:05:14;;;;;;;18.05;13.52;;;;;;;7.49;71.42;97699.63;5098420;28;20493;-51
2021/12/27 00:07:41;;;;;;;16.20;11.30;;;;;;;7.43;71.30;97692.63;5098340;28;20028;-50
2021/12/27 00:10:07;;;;;;;11.75;10.38;;;;;;;7.38;71.14;97682.81;5098370;28;20513;-51
2021/12/27 00:12:33;;;;;;;13.52;10.38;;;;;;;7.30;71.52;97675.16;5098388;28;20024;-50
2021/12/27 00:14:58;;;;;;;13.77;11.07;;;;;;;7.25;72.41;97682.03;5098340;28;20501;-50
2021/12/27 00:17:24;;;;;;;15.82;10.02;;;;;;;7.31;71.79;97682.00;5098305;28;20028;-51
2021/12/27 00:19:50;;;;;;;14.50;10.20;;;;;;;7.28;72.12;97676.38;5098234;28;20489;-50
2021/12/27 00:22:16;;;;;;;11.60;9.55;;;;;;;7.24;71.22;97677.78;5098301;28;20556;-51
2021/12/27 00:24:46;;;;;;;17.30;15.13;;;;;;;7.21;72.13;97668.56;5098279;28;20018;-51
2021/12/27 00:27:16;;;;;;;12.85;11.40;;;;;;;7.26;71.99;97671.34;5098333;28;20393;-51
2021/12/27 00:29:43;;;;;;;25.98;20.98;;;;;;;7.41;71.79;97673.75;5098249;28;20043;-50
2021/12/27 00:32:09;;;;;;;18.38;13.05;;;;;;;7.61;71.65;97668.47;5097860;28;20052;-50
2021/12/27 00:34:38;;;;;;;12.77;11.02;;;;;;;7.79;70.65;97662.59;5098533;28;20022;-51
2021/12/27 00:37:05;;;;;;;18.35;10.50;;;;;;;7.71;70.23;97660.22;5098102;28;20043;-50
2021/12/27 00:39:32;;;;;;;15.45;9.23;;;;;;;7.77;70.38;97662.00;5098111;28;20024;-50
2021/12/27 00:41:58;;;;;;;632.75;468.35;;;;;;;7.68;70.01;97664.00;5096655;28;20505;-50
2021/12/27 00:44:24;;;;;;;364.33;300.73;;;;;;;7.48;70.18;97656.25;5098092;28;20111;-51
2021/12/27 00:46:50;;;;;;;66.97;49.50;;;;;;;7.46;71.18;97662.69;5096688;28;20466;-51
2021/12/27 00:49:15;;;;;;;48.63;33.88;;;;;;;7.47;71.02;97659.88;5098034;28;20389;-51
2021/12/27 00:51:41;;;;;;;19.38;12.27;;;;;;;7.63;70.29;97657.84;5096726;28;20452;-51
2021/12/27 00:54:07;;;;;;;17.92;13.40;;;;;;;7.69;70.43;97657.00;5097994;28;20036;-50
2021/12/27 00:56:32;;;;;;;13.52;9.77;;;;;;;7.79;69.64;97655.53;5097944;28;20020;-51
2021/12/27 00:58:58;;;;;;;10.82;8.77;;;;;;;7.78;69.43;97643.47;5093945;28;20013;-50
2021/12/27 01:01:24;;;;;;;11.63;9.43;;;;;;;7.66;69.70;97644.34;5094644;28;20028;-51
2021/12/27 01:03:50;;;;;;;11.70;8.18;;;;;;;7.50;70.15;97632.56;5093423;28;20027;-50
2021/12/27 01:06:15;;;;;;;11.07;9.00;;;;;;;7.31;69.98;97642.84;5094657;28;20016;-50
2021/12/27 01:08:41;;;;;;;14.15;10.13;;;;;;;7.21;70.95;97642.47;5094620;28;20435;-51
2021/12/27 01:11:22;;;;;;;12.73;9.40;;;;;;;7.27;70.65;97633.84;5094802;28;20039;-51
2021/12/27 01:14:00;;;;;;;12.25;9.88;;;;;;;7.22;70.45;97633.63;5094586;28;20175;-50
2021/12/27 01:16:27;;;;;;;14.27;9.57;;;;;;;7.12;70.83;97638.47;5094521;28;20075;-50
2021/12/27 01:18:52;;;;;;;11.07;8.57;;;;;;;7.06;71.31;97628.84;5094418;28;20031;-50
2021/12/27 01:21:22;;;;;;;11.30;9.50;;;;;;;7.05;70.91;97629.88;5094246;28;20020;-51
2021/12/27 01:23:49;;;;;;;11.43;9.18;;;;;;;6.96;71.36;97626.66;5094308;28;20518;-51
2021/12/27 01:26:15;;;;;;;11.43;9.15;;;;;;;6.93;71.59;97622.66;5094283;28;20028;-50
2021/12/27 01:28:41;;;;;;;12.65;8.75;;;;;;;7.07;71.23;97622.66;5092968;28;20020;-51
2021/12/27 01:31:07;;;;;;;12.40;9.02;;;;;;;7.25;71.54;97620.19;5094091;28;20028;-51
2021/12/27 01:33:33;;;;;;;15.18;8.30;;;;;;;7.41;71.21;97611.09;5093922;28;20040;-50
2021/12/27 01:36:01;;;;;;;9.35;7.78;;;;;;;7.52;70.63;97604.44;5094041;28;20031;-51
2021/12/27 01:38:27;;;;;;;9.90;7.93;;;;;;;7.54;69.96;97605.03;5094082;28;20393;-50
2021/12/27 01:40:55;;;;;;;9.85;7.50;;;;;;;7.56;70.02;97601.19;5092549;28;20018;-51
2021/12/27 01:43:30;;;;;;;10.98;7.60;;;;;;;7.52;70.01;97605.22;5093935;28;20106;-51
2021/12/27 01:46:03;;;;;;;14.35;10.80;;;;;;;7.59;69.85;97602.59;5092622;28;20024;-51
2021/12/27 01:48:33;;;;;;;10.68;7.63;;;;;;;7.63;69.43;97600.38;5092545;28;20043;-51
2021/12/27 01:51:01;;;;;;;10.98;7.88;;;;;;;7.68;69.56;97597.94;5093798;28;20394;-50
2021/12/27 01:53:29;;;;;;;11.13;7.18;;;;;;;7.71;69.95;97587.88;5093733;28;20611;-50
2021/12/27 01:55:56;;;;;;;9.95;8.45;;;;;;;7.62;69.77;97583.91;5093660;28;20028;-50
2021/12/27 01:58:23;;;;;;;9.65;8.30;;;;;;;7.44;69.58;97575.94;5093680;28;20032;-50
2021/12/27 02:00:54;;;;;;;9.00;7.60;;;;;;;7.33;69.91;97572.97;5093514;28;20024;-51
2021/12/27 02:03:22;;;;;;;11.50;7.40;;;;;;;7.30;70.22;97572.59;5093655;28;20074;-51
2021/12/27 02:05:49;;;;;;;12.32;8.23;;;;;;;7.34;70.46;97576.38;5093451;28;20465;-51
2021/12/27 02:08:14;;;;;;;12.10;8.35;;;;;;;7.43;69.99;97569.16;5093438;28;20027;-50
2021/12/27 02:10:41;;;;;;;52.17;44.50;;;;;;;7.44;70.18;97565.50;5093384;28;20504;-50
2021/12/27 02:13:09;;;;;;;13.60;9.07;;;;;;;7.51;70.07;97568.91;5093407;28;20027;-51
2021/12/27 02:15:35;;;;;;;14.90;10.05;;;;;;;7.54;70.12;97569.28;5093344;28;20024;-50
2021/12/27 02:18:02;;;;;;;9.68;7.22;;;;;;;7.79;70.03;97561.53;5093266;28;20035;-50
2021/12/27 02:20:31;;;;;;;13.73;8.20;;;;;;;7.91;69.86;97563.47;5093403;28;20385;-50
2021/12/27 02:23:02;;;;;;;9.00;6.97;;;;;;;7.94;69.15;97560.41;5093477;28;20024;-50
2021/12/27 02:25:33;;;;;;;9.65;7.30;;;;;;;7.80;69.14;97550.03;5093195;28;20020;-51
2021/12/27 02:28:02;;;;;;;12.75;7.47;;;;;;;7.76;69.28;97543.66;5093064;28;20016;-50
2021/12/27 02:30:30;;;;;;;13.30;8.32;;;;;;;7.88;70.00;97548.22;5091548;28;20035;-50
2021/12/27 02:32:58;;;;;;;10.27;7.95;;;;;;;8.24;69.83;97550.16;5092702;28;20144;-51
2021/12/27 02:35:30;;;;;;;11.23;7.40;;;;;;;8.52;68.29;97539.28;5093188;28;20102;-51
2021/12/27 02:37:58;;;;;;;14.68;8.57;;;;;;;8.66;67.73;97544.41;5092931;28;20512;-51
2021/12/27 02:40:26;;;;;;;10.10;8.30;;;;;;;8.72;67.52;97544.34;5092739;28;20035;-50
2021/12/27 02:43:10;;;;;;;11.52;7.70;;;;;;;8.59;66.57;97547.06;5092838;28;20085;-50
2021/12/27 02:45:42;;;;;;;10.38;8.40;;;;;;;8.23;67.07;97548.56;5092811;28;20446;-51
2021/12/27 02:48:09;;;;;;;11.45;8.00;;;;;;;8.09;67.85;97544.44;5092730;28;20016;-51
2021/12/27 02:50:37;;;;;;;19.92;17.83;;;;;;;8.07;68.03;97549.06;5092690;28;20032;-51
2021/12/27 02:53:05;;;;;;;14.10;10.77;;;;;;;7.98;67.65;97541.50;5092664;28;20520;-50
2021/12/27 02:55:31;;;;;;;10.60;7.50;;;;;;;7.93;68.38;97540.56;5092527;28;20020;-50
2021/12/27 02:57:58;;;;;;;9.95;7.45;;;;;;;7.82;68.28;97534.16;5092552;28;20023;-50
2021/12/27 03:00:28;;;;;;;13.98;8.32;;;;;;;7.72;68.33;97534.63;5092439;28;20024;-50
2021/12/27 03:02:55;;;;;;;9.32;7.47;;;;;;;7.66;68.55;97530.25;5092587;28;20024;-51
2021/12/27 03:05:23;;;;;;;8.63;6.78;;;;;;;7.62;69.02;97526.47;5091159;28;20452;-51
2021/12/27 03:07:50;;;;;;;12.13;8.80;;;;;;;7.58;69.18;97526.06;5092451;28;20028;-51
2021/12/27 03:10:20;;;;;;;12.63;8.60;;;;;;;7.59;69.08;97526.88;5092330;28;20031;-51
2021/12/27 03:12:47;;;;;;;8.43;6.63;;;;;;;7.60;69.61;97518.03;5092312;28;20024;-50
2021/12/27 03:15:15;;;;;;;13.02;8.55;;;;;;;7.76;69.06;97527.97;5092293;28;20422;-50
2021/12/27 03:17:43;;;;;;;30.45;22.60;;;;;;;8.10;69.07;97527.75;5092303;28;20016;-50
2021/12/27 03:20:09;;;;;;;8.80;6.80;;;;;;;8.46;67.88;97532.31;5090722;28;20031;-50
2021/12/27 03:22:40;;;;;;;8.63;6.55;;;;;;;8.56;67.51;97521.38;5090250;28;20043;-51
2021/12/27 03:25:13;;;;;;;13.40;6.85;;;;;;;8.43;67.30;97522.31;5092183;28;20028;-51
2021/12/27 03:27:39;;;;;;;8.57;7.20;;;;;;;8.49;67.16;97518.81;5092087;28;20047;-50
2021/12/27 03:30:08;;;;;;;13.98;9.25;;;;;;;8.50;67.33;97512.56;5091964;28;20031;-50
2021/12/27 03:32:36;;;;;;;17.05;9.88;;;;;;;8.57;66.83;97517.72;5090418;28;20425;-50
2021/12/27 03:35:09;;;;;;;8.93;6.88;;;;;;;8.50;66.56;97509.94;5092282;28;20085;-51
2021/12/27 03:37:36;;;;;;;11.77;6.22;;;;;;;8.57;66.71;97522.94;5092009;28;20068;-51
2021/12/27 03:40:05;;;;;;;15.50;8.45;;;;;;;8.79;66.32;97523.34;5091857;28;20024;-50
2021/12/27 03:42:31;;;;;;;10.25;7.63;;;;;;;9.04;66.06;97525.09;5091921;28;20020;-51
2021/12/27 03:44:56;;;;;;;10.95;8.50;;;;;;;9.20;65.63;97532.34;5091867;28;20020;-50
2021/12/27 03:47:22;;;;;;;13.38;7.03;;;;;;;9.24;65.47;97520.44;5091840;28;20443;-51
2021/12/27 03:49:48;;;;;;;12.40;8.52;;;;;;;9.18;65.18;97519.47;5091820;28;20028;-51
2021/12/27 03:52:13;;;;;;;10.95;7.00;;;;;;;9.08;64.91;97505.31;5091803;28;20028;-50
2021/12/27 03:54:39;;;;;;;14.30;7.18;;;;;;;9.01;65.53;97502.75;5091807;28;20021;-51
2021/12/27 03:57:05;;;;;;;15.27;8.50;;;;;;;8.99;65.14;97495.16;5091757;28;20034;-51
2021/12/27 04:02:08;;;;;;;12.48;9.48;;;;;;;9.29;64.62;97494.38;5091693;28;20028;-51
2021/12/27 04:04:35;;;;;;;7.75;5.85;;;;;;;9.18;64.09;97490.69;5091732;28;20027;-50
2021/12/27 04:07:00;;;;;;;9.57;5.97;;;;;;;8.80;64.26;97485.72;5090347;28;20028;-51
2021/12/27 04:09:27;;;;;;;7.00;5.65;;;;;;;8.40;65.61;97491.31;5090363;28;20070;-51
2021/12/27 04:11:53;;;;;;;11.45;6.93;;;;;;;8.10;66.59;97493.78;5090358;28;20055;-50
2021/12/27 04:14:19;;;;;;;9.60;6.45;;;;;;;7.87;66.40;97486.50;5091618;28;20091;-50
2021/12/27 04:16:46;;;;;;;11.18;7.80;;;;;;;7.58;68.12;97494.72;5090257;28;20522;-50
2021/12/27 04:19:13;;;;;;;8.82;6.65;;;;;;;7.42;68.56;97489.22;5091649;28;20016;-50
2021/12/27 04:21:39;;;;;;;8.38;6.43;;;;;;;7.34;69.27;97488.44;5090136;28;20032;-51
2021/12/27 04:24:05;;;;;;;15.27;12.20;;;;;;;7.31;69.63;97486.28;5091528;28;20031;-50
2021/12/27 04:26:31;;;;;;;10.52;7.50;;;;;;;7.33;69.21;97486.06;5090124;28;20103;-50
2021/12/27 04:28:56;;;;;;;9.32;6.97;;;;;;;7.34;70.08;97485.03;5091470;28;20051;-50
2021/12/27 04:31:22;;;;;;;9.75;6.13;;;;;;;7.37;69.90;97488.03;5091425;28;20020;-50
2021/12/27 04:33:48;;;;;;;9.38;6.28;;;;;;;7.49;69.58;97496.00;5093215;28;20558;-50
2021/12/27 04:36:14;;;;;;;13.35;12.00;;;;;;;7.56;69.41;97490.75;5095271;28;20564;-50
2021/12/27 04:38:42;;;;;;;11.30;7.18;;;;;;;7.64;69.16;97481.88;5095166;28;20175;-50
2021/12/27 04:41:11;;;;;;;8.80;6.53;;;;;;;7.54;68.92;97488.34;5095064;28;20027;-51
2021/12/27 04:43:37;;;;;;;8.60;6.35;;;;;;;7.49;68.99;97482.97;5093784;28;20035;-51
2021/12/27 04:46:04;;;;;;;11.77;8.70;;;;;;;7.43;69.34;97475.97;5093747;28;20398;-51
2021/12/27 04:48:31;;;;;;;10.25;6.88;;;;;;;7.38;70.13;97479.22;5095093;28;20103;-51
2021/12/27 04:50:57;;;;;;;9.60;6.38;;;;;;;7.50;69.79;97481.94;5093647;28;20043;-51
2021/12/27 04:53:23;;;;;;;10.32;6.78;;;;;;;7.67;70.01;97477.03;5093684;28;20533;-51
2021/12/27 04:55:49;;;;;;;8.07;6.10;;;;;;;7.80;69.04;97466.47;5093558;28;20405;-51
2021/12/27 04:58:17;;;;;;;7.35;5.20;;;;;;;7.82;68.85;97468.09;5094848;28;20113;-51
2021/12/27 05:00:44;;;;;;;6.05;5.32;;;;;;;7.80;68.84;97471.69;5094646;28;20405;-51
2021/12/27 05:03:09;;;;;;;15.20;12.32;;;;;;;7.72;68.52;97471.94;5094798;28;20032;-51
2021/12/27 05:05:37;;;;;;;8.73;6.63;;;;;;;7.69;68.74;97463.75;5094695;28;20016;-51
2021/12/27 05:08:03;;;;;;;11.02;8.00;;;;;;;7.64;68.71;97458.38;5093366;28;20024;-51
2021/12/27 05:10:30;;;;;;;30.35;24.58;;;;;;;7.53;68.63;97455.41;5094535;28;20027;-51
2021/12/27 05:12:57;;;;;;;19.20;11.60;;;;;;;7.44;69.13;97440.22;5076402;28;20031;-51
2021/12/27 05:15:23;;;;;;;13.40;8.60;;;;;;;7.38;69.21;97439.25;5094550;28;20459;-50
2021/12/27 05:17:49;;;;;;;10.15;7.13;;;;;;;7.35;69.16;97442.28;5093126;28;20433;-51
2021/12/27 05:20:15;;;;;;;15.18;13.20;;;;;;;7.31;70.14;97441.91;5093020;28;20035;-50
2021/12/27 05:22:41;;;;;;;10.70;8.70;;;;;;;7.39;69.47;97433.81;5094371;28;20038;-50
2021/12/27 05:25:11;;;;;;;9.35;7.30;;;;;;;7.39;69.93;97441.66;5094336;28;20058;-51
2021/12/27 05:27:41;;;;;;;18.60;10.98;;;;;;;7.42;70.51;97431.81;5094287;28;20024;-51
2021/12/27 05:30:08;;;;;;;25.23;20.70;;;;;;;7.54;70.32;97417.06;5094229;28;20021;-51
2021/12/27 05:32:35;;;;;;;16.35;12.27;;;;;;;7.79;69.52;97409.25;5093875;28;20040;-50
2021/12/27 05:35:03;;;;;;;16.52;10.43;;;;;;;7.90;68.59;97410.34;5094097;28;20482;-50
2021/12/27 05:37:30;;;;;;;14.93;10.73;;;;;;;7.93;69.00;97412.53;5094123;28;20012;-51
2021/12/27 05:39:57;;;;;;;19.40;10.30;;;;;;;8.30;68.34;97413.38;5093990;28;20027;-51
2021/12/27 05:42:23;;;;;;;11.50;6.10;;;;;;;8.46;67.32;97413.88;5093981;28;20051;-50
2021/12/27 05:44:48;;;;;;;14.57;9.63;;;;;;;8.34;66.86;97414.53;5093201;28;20059;-51
2021/12/27 05:47:14;;;;;;;9.45;5.97;;;;;;;8.37;67.37;97413.31;5093900;28;20498;-51
2021/12/27 05:49:40;;;;;;;10.25;7.90;;;;;;;8.39;66.92;97417.31;5093873;28;20070;-51
2021/12/27 05:52:06;;;;;;;17.67;9.15;;;;;;;8.63;67.55;97420.09;5092747;28;20493;-51
2021/12/27 05:54:32;;;;;;;22.67;11.02;;;;;;;8.89;66.93;97405.88;5093838;28;20020;-50
2021/12/27 05:56:57;;;;;;;18.33;10.23;;;;;;;9.19;66.55;97410.34;5093671;28;20027;-51
2021/12/27 05:59:23;;;;;;;12.63;7.20;;;;;;;9.49;65.94;97410.31;5093713;28;20020;-51
2021/12/27 06:01:49;;;;;;;11.50;7.10;;;;;;;9.66;64.77;97404.41;5093576;28;20017;-51
2021/12/27 06:04:14;;;;;;;11.32;6.20;;;;;;;9.65;64.51;97402.81;5093596;28;20048;-51
2021/12/27 06:06:40;;;;;;;11.85;6.90;;;;;;;9.64;64.35;97399.41;5093501;28;20367;-51
2021/12/27 06:09:06;;;;;;;12.98;7.32;;;;;;;9.79;65.65;97393.72;5092196;28;20027;-51
2021/12/27 06:11:32;;;;;;;14.38;7.20;;;;;;;9.97;66.29;97396.22;5093404;28;20433;-50
2021/12/27 06:13:58;;;;;;;11.45;7.45;;;;;;;9.87;64.73;97401.25;5093375;28;20103;-51
2021/12/27 06:16:24;;;;;;;11.48;7.38;;;;;;;9.52;64.63;97395.97;5093343;28;20108;-50
2021/12/27 06:18:50;;;;;;;9.27;6.28;;;;;;;9.39;65.18;97404.81;5093297;28;20020;-51
2021/12/27 06:21:16;;;;;;;9.75;5.40;;;;;;;9.47;64.82;97388.78;5093175;28;20018;-50
2021/12/27 06:23:43;;;;;;;22.92;18.17;;;;;;;9.54;64.35;97386.88;5093213;28;20024;-51
2021/12/27 06:26:09;;;;;;;18.50;11.57;;;;;;;9.47;64.11;97372.28;5093108;28;20025;-51
2021/12/27 06:28:35;;;;;;;13.40;9.90;;;;;;;9.48;64.28;97363.41;5093107;28;20085;-51
2021/12/27 06:31:01;;;;;;;8.10;6.60;;;;;;;9.23;63.79;97361.75;5093001;28;20024;-51
2021/12/27 06:33:28;;;;;;;12.82;9.18;;;;;;;9.09;65.19;97352.50;5092839;28;20039;-51
2021/12/27 06:35:54;;;;;;;12.20;6.60;;;;;;;9.20;64.83;97354.38;5092957;28;20081;-50
2021/12/27 06:38:21;;;;;;;7.38;6.13;;;;;;;9.19;64.37;97345.72;5092948;28;20432;-50
2021/12/27 06:40:51;;;;;;;9.30;7.70;;;;;;;9.06;64.07;97340.66;5091476;28;20028;-51
2021/12/27 06:43:16;;;;;;;12.27;7.55;;;;;;;9.00;64.54;97346.78;5092848;28;20028;-51
2021/12/27 06:45:43;;;;;;;9.65;5.60;;;;;;;9.00;64.74;97344.19;5092753;28;20375;-51
2021/12/27 06:48:08;;;;;;;7.63;5.80;;;;;;;8.93;64.26;97349.50;5091375;28;20016;-50
2021/12/27 06:50:34;;;;;;;10.73;5.80;;;;;;;8.93;64.76;97343.47;5092690;28;20039;-50
2021/12/27 06:53:00;;;;;;;18.45;6.60;;;;;;;8.98;64.71;97346.22;5092631;28;20020;-50
2021/12/27 06:55:26;;;;;;;20.75;7.50;;;;;;;9.09;64.84;97342.81;5092056;28;20099;-50
2021/12/27 06:57:52;;;;;;;9.93;6.53;;;;;;;9.21;64.72;97335.00;5092249;28;20093;-51
2021/12/27 07:00:18;;;;;;;14.60;8.40;;;;;;;9.36;64.80;97324.91;5092439;28;20070;-51
2021/12/27 07:02:44;;;;;;;11.40;7.10;;;;;;;9.40;64.00;97331.28;5092518;28;20655;-50
2021/12/27 07:05:11;;;;;;;17.90;14.00;;;;;;;9.26;63.94;97334.34;5092472;28;20055;-51
2021/12/27 07:07:38;;;;;;;12.10;7.53;;;;;;;9.29;64.14;97336.50;5092399;28;20028;-51
2021/12/27 07:10:07;;;;;;;10.85;6.65;;;;;;;9.22;63.17;97335.81;5092342;28;20024;-50
2021/12/27 07:12:33;;;;;;;8.10;5.30;;;;;;;9.12;63.65;97333.75;5091007;28;20031;-50
2021/12/27 07:14:59;;;;;;;6.63;5.38;;;;;;;8.96;63.83;97333.34;5092339;28;20024;-51
2021/12/27 07:17:26;;;;;;;11.00;5.22;;;;;;;8.85;64.56;97343.78;5090912;28;20505;-51
2021/12/27 07:19:52;;;;;;;6.32;4.95;;;;;;;8.91;64.91;97351.53;5092166;28;20184;-51
2021/12/27 07:22:18;;;;;;;7.35;5.00;;;;;;;8.92;64.39;97360.97;5092392;28;20380;-51
2021/12/27 07:24:44;;;;;;;10.10;5.05;;;;;;;9.00;64.67;97372.97;5090895;28;20024;-51
2021/12/27 07:27:10;;;;;;;13.00;6.90;;;;;;;9.22;64.82;97370.63;5092066;28;20435;-51
2021/12/27 07:29:36;;;;;;;10.23;6.45;;;;;;;9.66;64.98;97363.31;5091062;28;20627;-51
2021/12/27 07:32:02;;;;;;;14.77;9.88;;;;;;;10.02;65.06;97368.53;5091635;28;20027;-51
2021/12/27 07:34:28;;;;;;;20.20;10.32;;;;;;;10.10;65.34;97368.19;5092139;28;20052;-51
2021/12/27 07:36:55;;;;;;;31.80;25.77;;;;;;;10.22;65.66;97391.78;5091945;28;20117;-51
2021/12/27 07:39:22;;;;;;;25.33;20.83;;;;;;;9.99;65.28;97399.41;5092013;28;20040;-51
2021/12/27 07:41:49;;;;;;;22.55;11.65;;;;;;;9.57;66.22;97401.31;5091928;28;20027;-51
2021/12/27 07:44:15;;;;;;;18.95;16.67;;;;;;;9.33;66.79;97395.25;5091918;28;20031;-51
2021/12/27 07:46:42;;;;;;;11.07;7.80;;;;;;;9.27;68.43;97393.53;5090863;28;20420;-51
2021/12/27 07:49:11;;;;;;;9.75;7.85;;;;;;;9.21;68.05;97395.22;5090664;28;20507;-51
2021/12/27 07:51:38;;;;;;;7.85;5.55;;;;;;;9.10;68.77;97391.53;5091886;28;20024;-51
2021/12/27 07:54:05;;;;;;;9.98;8.32;;;;;;;8.86;70.01;97405.56;5090477;28;20058;-50
2021/12/27 07:56:31;;;;;;;7.60;4.68;;;;;;;8.76;70.94;97421.78;5091846;28;20052;-51
2021/12/27 07:59:03;;;;;;;7.00;4.78;;;;;;;8.83;71.97;97427.69;5090573;28;20630;-50
2021/12/27 08:01:34;;;;;;;8.32;4.70;;;;;;;9.00;72.76;97412.22;5091802;28;20401;-50
2021/12/27 08:04:00;;;;;;;6.63;4.43;;;;;;;9.25;73.26;97426.97;5091841;28;20036;-50
2021/12/27 08:06:26;;;;;;;11.93;5.13;;;;;;;9.37;73.23;97433.03;5090390;28;20425;-50
2021/12/27 08:08:52;;;;;;;4.25;2.90;;;;;;;9.42;73.22;97435.81;5093991;28;20016;-50
2021/12/27 08:11:18;;;;;;;9.38;5.35;;;;;;;9.45;73.98;97439.78;5095778;28;20059;-50
2021/12/27 08:13:43;;;;;;;4.32;2.97;;;;;;;9.47;74.44;97437.75;5095813;28;20521;-50
2021/12/27 08:16:11;;;;;;;9.38;3.95;;;;;;;9.46;75.39;97463.16;5095672;28;20497;-51
2021/12/27 08:18:36;;;;;;;2.92;1.90;;;;;;;9.46;74.25;97436.16;5095625;28;20030;-50
2021/12/27 08:21:03;;;;;;;32.05;17.70;;;;;;;9.28;75.58;97464.00;5095489;28;20456;-50
2021/12/27 08:23:28;;;;;;;7.45;2.78;;;;;;;9.29;76.28;97457.72;5095906;28;20435;-51
2021/12/27 08:25:54;;;;;;;10.02;4.75;;;;;;;9.25;77.37;97455.78;5095476;28;20028;-50
2021/12/27 08:28:21;;;;;;;14.68;7.20;;;;;;;9.20;78.67;97469.53;5095476;28;20028;-51
2021/12/27 08:30:46;;;;;;;6.25;3.90;;;;;;;9.16;79.28;97484.09;5094071;28;20073;-50
2021/12/27 08:33:12;;;;;;;8.05;7.07;;;;;;;9.09;79.38;97472.88;5095071;28;20044;-50
2021/12/27 08:35:40;;;;;;;10.23;5.47;;;;;;;9.07;80.08;97474.94;5095321;28;20435;-50
2021/12/27 08:38:06;;;;;;;9.68;4.65;;;;;;;9.12;80.00;97472.47;5095264;28;20028;-51
2021/12/27 08:40:32;;;;;;;39.08;32.17;;;;;;;9.18;80.17;97456.66;5093821;28;20042;-50
2021/12/27 08:42:58;;;;;;;7.28;3.33;;;;;;;9.29;80.39;97462.16;5095173;28;20024;-51
2021/12/27 08:45:24;;;;;;;11.00;2.90;;;;;;;9.42;79.31;97451.53;5095108;28;20051;-50
2021/12/27 08:47:50;;;;;;;6.45;3.03;;;;;;;9.42;79.92;97467.22;5095120;28;20020;-49
2021/12/27 08:50:17;;;;;;;5.72;2.83;;;;;;;9.48;80.15;97476.03;5095293;28;20067;-50
2021/12/27 08:52:44;;;;;;;9.00;6.10;;;;;;;9.50;79.13;97476.59;5093669;28;20039;-50
2021/12/27 08:55:11;;;;;;;7.38;4.10;;;;;;;9.41;78.97;97452.53;5094945;28;20020;-50
2021/12/27 08:57:38;;;;;;;11.50;4.82;;;;;;;9.39;80.00;97463.22;5094955;28;20101;-50
2021/12/27 09:00:08;;;;;;;3.70;2.67;;;;;;;9.48;79.74;97471.56;5094755;28;20026;-50
2021/12/27 09:02:34;;;;;;;5.28;3.20;;;;;;;9.51;80.35;97470.31;5094860;28;20032;-50
2021/12/27 09:05:02;;;;;;;4.07;2.38;;;;;;;9.53;79.56;97466.44;5093448;28;20382;-50
2021/12/27 09:07:28;;;;;;;3.50;2.28;;;;;;;9.54;78.89;97462.81;5093321;28;20032;-50
2021/12/27 09:09:53;;;;;;;6.05;3.17;;;;;;;9.53;79.08;97474.31;5093374;28;20578;-50
2021/12/27 09:12:19;;;;;;;7.03;3.40;;;;;;;9.58;79.60;97471.03;5093217;28;20028;-50
2021/12/27 09:14:45;;;;;;;8.43;2.10;;;;;;;9.67;79.99;97474.91;5094569;28;20393;-51
2021/12/27 09:17:11;;;;;;;11.93;5.25;;;;;;;9.78;80.08;97465.50;5093234;28;20028;-51
2021/12/27 09:19:37;;;;;;;7.20;4.15;;;;;;;9.78;79.71;97476.78;5093300;28;20016;-50
2021/12/27 09:22:03;;;;;;;5.22;2.42;;;;;;;9.82;79.60;97471.06;5094339;28;20367;-51
2021/12/27 09:24:31;;;;;;;10.13;5.35;;;;;;;9.75;79.51;97479.03;5094411;28;20074;-50
2021/12/27 09:26:57;;;;;;;6.50;2.38;;;;;;;9.79;80.15;97482.81;5094353;28;20032;-50
2021/12/27 09:29:23;;;;;;;6.60;2.72;;;;;;;9.72;78.44;97480.28;5094309;28;20016;-50
2021/12/27 09:31:50;;;;;;;7.85;4.18;;;;;;;9.73;80.46;97478.47;5094273;28;20433;-51
2021/12/27 09:34:17;;;;;;;4.40;1.85;;;;;;;9.81;79.85;97472.91;5094225;28;20117;-51
2021/12/27 09:36:43;;;;;;;5.20;1.88;;;;;;;9.90;80.11;97484.66;5092832;28;20031;-51
2021/12/27 09:39:09;;;;;;;3.55;2.17;;;;;;;9.83;79.23;97485.78;5092810;28;20028;-51
2021/12/27 09:41:35;;;;;;;3.30;1.50;;;;;;;9.68;78.92;97488.81;5094023;28;20428;-50
2021/12/27 09:44:02;;;;;;;3.67;1.52;;;;;;;9.60;79.36;97495.19;5092714;28;20128;-50
2021/12/27 09:46:28;;;;;;;10.52;3.03;;;;;;;9.58;80.00;97505.09;5093940;28;20059;-49
2021/12/27 09:48:57;;;;;;;4.53;2.15;;;;;;;9.65;80.29;97507.59;5093965;28;20047;-51
2021/12/27 09:51:26;;;;;;;3.55;2.08;;;;;;;9.67;80.27;97511.59;5092585;28;20028;-50
2021/12/27 09:53:52;;;;;;;6.82;3.67;;;;;;;9.62;80.12;97508.03;5093895;28;20378;-51
2021/12/27 09:56:18;;;;;;;38.50;16.92;;;;;;;9.58;80.23;97508.50;5093793;28;20020;-50
2021/12/27 09:58:44;;;;;;;5.55;3.03;;;;;;;9.67;80.64;97526.53;5092370;28;20198;-50
2021/12/27 10:01:10;;;;;;;8.50;3.45;;;;;;;9.54;80.06;97514.41;5092278;28;20494;-51
2021/12/27 10:03:51;;;;;;;9.25;2.30;;;;;;;9.48;80.86;97510.84;5093624;28;20107;-50
2021/12/27 10:06:19;;;;;;;9.10;2.30;;;;;;;9.48;80.99;97516.09;5093644;28;20024;-50
2021/12/27 10:08:51;;;;;;;8.15;5.47;;;;;;;9.46;81.66;97523.38;5092197;28;20115;-50
2021/12/27 10:11:22;;;;;;;6.28;2.85;;;;;;;9.54;81.62;97527.50;5093487;28;20401;-50
2021/12/27 10:14:04;;;;;;;16.30;6.28;;;;;;;9.58;82.10;97513.75;5093460;28;20393;-50
2021/12/27 10:16:32;;;;;;;6.85;3.40;;;;;;;9.67;81.64;97501.13;5092051;28;20032;-51
2021/12/27 10:19:03;;;;;;;9.10;5.18;;;;;;;9.63;81.00;97504.41;5092278;28;20120;-50
2021/12/27 10:21:29;;;;;;;4.43;1.73;;;;;;;9.54;81.29;97501.31;5093179;28;20017;-50
2021/12/27 10:24:10;;;;;;;5.55;3.00;;;;;;;9.46;81.00;97520.75;5091905;28;20028;-50
2021/12/27 10:26:37;;;;;;;7.72;4.93;;;;;;;9.44;81.90;97512.31;5093104;28;20028;-50
2021/12/27 10:29:16;;;;;;;22.67;10.35;;;;;;;9.42;82.00;97482.94;5093163;28;20020;-50
2021/12/27 10:32:14;;;;;;;11.00;7.72;;;;;;;9.47;82.38;97503.22;5093162;28;20071;-50
2021/12/27 10:34:51;;;;;;;8.13;3.90;;;;;;;9.44;81.24;97506.25;5093102;28;20032;-50
2021/12/27 10:37:23;;;;;;;4.43;2.67;;;;;;;9.49;82.05;97494.09;5092985;28;20039;-50
2021/12/27 10:39:57;;;;;;;23.50;16.45;;;;;;;9.47;81.71;97484.88;5092959;28;20026;-50
2021/12/27 10:42:27;;;;;;;7.10;4.03;;;;;;;9.52;82.05;97479.78;5092877;28;20032;-49
2021/12/27 10:44:56;;;;;;;4.97;2.90;;;;;;;9.42;81.13;97469.03;5092818;28;20028;-50
2021/12/27 10:47:29;;;;;;;3.72;2.83;;;;;;;9.47;81.70;97464.72;5091463;28;20024;-50
2021/12/27 10:50:02;;;;;;;7.78;3.47;;;;;;;9.52;81.69;97475.34;5092824;28;20020;-50
2021/12/27 10:52:50;;;;;;;9.95;2.95;;;;;;;9.51;81.27;97458.03;5092764;28;20463;-50
2021/12/27 10:55:31;;;;;;;5.85;2.95;;;;;;;9.51;81.71;97455.41;5092629;28;20025;-51
2021/12/27 10:58:18;;;;;;;5.72;3.42;;;;;;;9.49;81.59;97467.13;5092644;28;20039;-50
2021/12/27 11:00:50;;;;;;;5.00;3.20;;;;;;;9.50;81.61;97468.75;5092511;28;20024;-50
2021/12/27 11:03:28;;;;;;;2.97;1.88;;;;;;;9.55;82.05;97467.03;5091256;28;20118;-50
2021/12/27 11:05:54;;;;;;;2.45;1.77;;;;;;;9.53;81.21;97473.50;5091168;28;20119;-50
2021/12/27 11:08:20;;;;;;;6.00;3.25;;;;;;;9.47;81.51;97501.38;5092499;28;20498;-49
2021/12/27 11:10:46;;;;;;;15.02;8.30;;;;;;;9.48;81.90;97478.63;5092356;28;20157;-50
2021/12/27 11:13:12;;;;;;;3.97;2.35;;;;;;;9.55;81.98;97484.56;5090972;28;20028;-50
2021/12/27 11:15:40;;;;;;;2.30;1.35;;;;;;;9.57;81.79;97470.22;5092322;28;20069;-51
2021/12/27 11:18:07;;;;;;;12.85;8.60;;;;;;;9.54;82.17;97457.59;5090971;28;20595;-50
2021/12/27 11:20:35;;;;;;;9.70;6.00;;;;;;;9.62;81.82;97451.22;5092206;28;20020;-50
2021/12/27 11:23:02;;;;;;;8.52;4.57;;;;;;;9.55;81.26;97458.38;5092180;28;20016;-50
2021/12/27 11:25:37;;;;;;;2.88;1.95;;;;;;;9.53;81.79;97445.50;5092205;28;20031;-51
2021/12/27 11:28:05;;;;;;;4.30;3.40;;;;;;;9.56;81.10;97450.31;5092328;28;20024;-50
2021/12/27 11:30:33;;;;;;;2.15;1.92;;;;;;;9.62;81.75;97466.94;5092145;28;20074;-50
2021/12/27 11:33:12;;;;;;;30.13;24.63;;;;;;;9.56;80.33;97455.53;5091815;28;20044;-50
2021/12/27 11:35:57;;;;;;;5.07;2.58;;;;;;;9.56;80.78;97455.53;5090808;28;20446;-50
2021/12/27 11:38:33;;;;;;;4.57;2.45;;;;;;;9.53;80.85;97435.03;5091903;28;20032;-50